Time,TemperatureF,DewpointF,PressureIn,WindDirection,WindDirectionDegrees,WindSpeedMPH,WindSpeedGustMPH,Humidity,HourlyPrecipIn,Conditions,Clouds,dailyrainin,SolarRadiationWatts/m^2,SoftwareType,DateUTC
2013-09-03 00:02:00,74.0,53.0,-100.00,WNW,293,3.0,5.0,48,0.00,,,0.00,0.000000,,2013-09-03 06:02:00,
2013-09-03 00:12:00,74.0,53.0,-100.00,WNW,293,3.0,5.0,48,0.00,,,0.00,0.000000,,2013-09-03 06:12:00,
2013-09-03 00:43:00,74.0,53.0,-100.00,WSW,250,2.0,4.0,48,0.00,,,0.00,0.000000,,2013-09-03 06:43:00,
2013-09-03 00:52:00,74.0,53.0,-100.00,WSW,250,2.0,4.0,48,0.00,,,0.00,0.000000,,2013-09-03 06:52:00,
2013-09-03 01:02:00,74.0,53.0,-100.00,WSW,250,2.0,4.0,48,0.00,,,0.00,0.000000,,2013-09-03 07:02:00,
2013-09-03 01:12:00,74.0,53.0,-100.00,WSW,250,2.0,4.0,48,0.00,,,0.00,0.000000,,2013-09-03 07:12:00,
2013-09-03 01:42:00,75.0,53.0,-100.00,East,92,0.0,6.0,47,0.00,,,0.00,0.000000,,2013-09-03 07:42:00,
2013-09-03 01:53:00,75.0,53.0,-100.00,East,92,0.0,6.0,47,0.00,,,0.00,0.000000,,2013-09-03 07:53:00,
2013-09-03 02:03:00,75.0,53.0,-100.00,East,92,0.0,6.0,47,0.00,,,0.00,0.000000,,2013-09-03 08:03:00,
2013-09-03 02:11:00,75.0,53.0,-100.00,East,92,0.0,6.0,47,0.00,,,0.00,0.000000,,2013-09-03 08:11:00,
2013-09-03 02:42:00,73.0,55.0,-100.00,WNW,296,4.0,7.0,53,0.00,,,0.00,0.000000,,2013-09-03 08:42:00,
2013-09-03 02:52:00,73.0,55.0,-100.00,WNW,296,4.0,7.0,53,0.00,,,0.00,0.000000,,2013-09-03 08:52:00,
2013-09-03 03:02:00,73.0,55.0,-100.00,WNW,296,4.0,7.0,53,0.00,,,0.00,0.000000,,2013-09-03 09:02:00,
2013-09-03 03:11:00,73.0,55.0,-100.00,WNW,296,4.0,7.0,53,0.00,,,0.00,0.000000,,2013-09-03 09:11:00,
2013-09-03 03:13:00,73.0,54.0,-100.00,SE,126,3.0,6.0,51,0.00,,,0.00,0.000000,,2013-09-03 09:13:00,
2013-09-03 03:43:00,73.0,54.0,-100.00,SE,126,3.0,6.0,51,0.00,,,0.00,0.000000,,2013-09-03 09:43:00,
2013-09-03 03:53:00,73.0,54.0,-100.00,SE,126,3.0,6.0,51,0.00,,,0.00,0.000000,,2013-09-03 09:53:00,
2013-09-03 04:03:00,73.0,54.0,-100.00,SE,126,3.0,6.0,51,0.00,,,0.00,0.000000,,2013-09-03 10:03:00,
2013-09-03 04:42:00,73.0,53.0,-100.00,WNW,293,4.0,11.0,49,0.00,,,0.00,0.000000,,2013-09-03 10:42:00,
2013-09-03 04:53:00,73.0,53.0,-100.00,WNW,293,4.0,11.0,49,0.00,,,0.00,0.000000,,2013-09-03 10:53:00,
2013-09-03 05:02:00,73.0,53.0,-100.00,WNW,293,4.0,11.0,49,0.00,,,0.00,0.000000,,2013-09-03 11:02:00,
2013-09-03 05:12:00,73.0,53.0,-100.00,WNW,293,4.0,11.0,49,0.00,,,0.00,0.000000,,2013-09-03 11:12:00,
2013-09-03 05:43:00,68.0,53.0,-100.00,SW,216,1.0,7.0,59,0.00,,,0.00,0.000000,,2013-09-03 11:43:00,
2013-09-03 05:52:00,68.0,53.0,-100.00,SW,216,1.0,7.0,59,0.00,,,0.00,0.000000,,2013-09-03 11:52:00,
2013-09-03 06:02:00,68.0,53.0,-100.00,SW,216,1.0,7.0,59,0.00,,,0.00,0.000000,,2013-09-03 12:02:00,
2013-09-03 06:12:00,68.0,53.0,-100.00,SW,216,1.0,7.0,59,0.00,,,0.00,0.000000,,2013-09-03 12:12:00,
2013-09-03 06:42:00,69.0,52.0,-100.00,NW,312,4.0,5.0,55,0.00,,,0.00,0.000000,,2013-09-03 12:42:00,
2013-09-03 06:52:00,69.0,52.0,-100.00,NW,312,4.0,5.0,55,0.00,,,0.00,0.000000,,2013-09-03 12:52:00,
2013-09-03 07:02:00,69.0,52.0,-100.00,NW,312,4.0,5.0,55,0.00,,,0.00,0.000000,,2013-09-03 13:02:00,
2013-09-03 07:11:00,69.0,52.0,-100.00,NW,312,4.0,5.0,55,0.00,,,0.00,0.000000,,2013-09-03 13:11:00,
2013-09-03 07:42:00,73.0,54.0,-100.00,WNW,285,0.0,5.0,51,0.00,,,0.00,19.000000,,2013-09-03 13:42:00,
2013-09-03 07:52:00,73.0,54.0,-100.00,WNW,285,0.0,5.0,51,0.00,,,0.00,19.000000,,2013-09-03 13:52:00,
2013-09-03 08:02:00,73.0,54.0,-100.00,WNW,285,0.0,5.0,51,0.00,,,0.00,19.000000,,2013-09-03 14:02:00,
2013-09-03 08:11:00,73.0,54.0,-100.00,WNW,285,0.0,5.0,51,0.00,,,0.00,19.000000,,2013-09-03 14:11:00,
2013-09-03 08:42:00,80.0,59.0,-100.00,NE,50,2.0,3.0,48,0.00,,,0.00,165.000000,,2013-09-03 14:42:00,
2013-09-03 08:52:00,80.0,59.0,-100.00,NE,50,2.0,3.0,48,0.00,,,0.00,165.000000,,2013-09-03 14:52:00,
2013-09-03 09:02:00,80.0,59.0,-100.00,NE,50,2.0,3.0,48,0.00,,,0.00,165.000000,,2013-09-03 15:02:00,
2013-09-03 09:13:00,84.0,55.0,-100.00,SW,220,5.0,10.0,37,0.00,,,0.00,362.000000,,2013-09-03 15:13:00,
2013-09-03 09:43:00,84.0,55.0,-100.00,SW,220,5.0,10.0,37,0.00,,,0.00,362.000000,,2013-09-03 15:43:00,
2013-09-03 09:54:00,84.0,55.0,-100.00,SW,220,5.0,10.0,37,0.00,,,0.00,362.000000,,2013-09-03 15:54:00,
2013-09-03 10:04:00,84.0,55.0,-100.00,SW,220,5.0,10.0,37,0.00,,,0.00,362.000000,,2013-09-03 16:04:00,
2013-09-03 10:13:00,87.0,56.0,-100.00,WSW,246,5.0,14.0,35,0.00,,,0.00,558.000000,,2013-09-03 16:13:00,
2013-09-03 10:43:00,87.0,56.0,-100.00,WSW,246,5.0,14.0,35,0.00,,,0.00,558.000000,,2013-09-03 16:43:00,
2013-09-03 10:54:00,87.0,56.0,-100.00,WSW,246,5.0,14.0,35,0.00,,,0.00,558.000000,,2013-09-03 16:54:00,
2013-09-03 11:03:00,87.0,56.0,-100.00,WSW,246,5.0,14.0,35,0.00,,,0.00,558.000000,,2013-09-03 17:03:00,
2013-09-03 11:43:00,89.0,55.0,-100.00,SSW,204,6.0,14.0,32,0.00,,,0.00,716.000000,,2013-09-03 17:43:00,
2013-09-03 11:52:00,89.0,55.0,-100.00,SSW,204,6.0,14.0,32,0.00,,,0.00,716.000000,,2013-09-03 17:52:00,
2013-09-03 12:02:00,89.0,55.0,-100.00,SSW,204,6.0,14.0,32,0.00,,,0.00,716.000000,,2013-09-03 18:02:00,
2013-09-03 12:12:00,89.0,55.0,-100.00,SSW,204,6.0,14.0,32,0.00,,,0.00,716.000000,,2013-09-03 18:12:00,
2013-09-03 12:43:00,90.0,54.0,-100.00,SSE,161,7.0,19.0,30,0.00,,,0.00,850.000000,,2013-09-03 18:43:00,
2013-09-03 12:52:00,90.0,54.0,-100.00,SSE,161,7.0,19.0,30,0.00,,,0.00,850.000000,,2013-09-03 18:52:00,
2013-09-03 13:02:00,90.0,54.0,-100.00,SSE,161,7.0,19.0,30,0.00,,,0.00,850.000000,,2013-09-03 19:02:00,
2013-09-03 13:11:00,90.0,54.0,-100.00,SSE,161,7.0,19.0,30,0.00,,,0.00,850.000000,,2013-09-03 19:11:00,
2013-09-03 13:42:00,91.0,52.0,-100.00,SW,231,5.0,16.0,27,0.00,,,0.00,912.000000,,2013-09-03 19:42:00,
2013-09-03 13:52:00,91.0,52.0,-100.00,SW,231,5.0,16.0,27,0.00,,,0.00,912.000000,,2013-09-03 19:52:00,
2013-09-03 14:02:00,91.0,52.0,-100.00,SW,231,5.0,16.0,27,0.00,,,0.00,912.000000,,2013-09-03 20:02:00,
2013-09-03 14:11:00,91.0,52.0,-100.00,SW,231,5.0,16.0,27,0.00,,,0.00,912.000000,,2013-09-03 20:11:00,
2013-09-03 14:42:00,92.0,53.0,-100.00,South,181,8.0,14.0,27,0.00,,,0.00,797.000000,,2013-09-03 20:42:00,
2013-09-03 14:53:00,92.0,53.0,-100.00,South,181,8.0,14.0,27,0.00,,,0.00,797.000000,,2013-09-03 20:53:00,
2013-09-03 15:01:00,92.0,53.0,-100.00,South,181,8.0,14.0,27,0.00,,,0.00,797.000000,,2013-09-03 21:01:00,
2013-09-03 15:12:00,92.0,53.0,-100.00,South,181,8.0,14.0,27,0.00,,,0.00,797.000000,,2013-09-03 21:12:00,
2013-09-03 15:13:00,94.0,53.0,-100.00,SSE,150,6.0,14.0,25,0.00,,,0.00,892.000000,,2013-09-03 21:13:00,
2013-09-03 15:44:00,94.0,53.0,-100.00,SSE,150,6.0,14.0,25,0.00,,,0.00,892.000000,,2013-09-03 21:44:00,
2013-09-03 15:54:00,94.0,53.0,-100.00,SSE,150,6.0,14.0,25,0.00,,,0.00,892.000000,,2013-09-03 21:54:00,
2013-09-03 16:04:00,94.0,53.0,-100.00,SSE,150,6.0,14.0,25,0.00,,,0.00,892.000000,,2013-09-03 22:04:00,
2013-09-03 16:43:00,94.0,53.0,-100.00,SE,135,7.0,15.0,25,0.00,,,0.00,791.000000,,2013-09-03 22:43:00,
2013-09-03 16:53:00,94.0,53.0,-100.00,SE,135,7.0,15.0,25,0.00,,,0.00,791.000000,,2013-09-03 22:53:00,
2013-09-03 17:04:00,94.0,53.0,-100.00,SE,135,7.0,15.0,25,0.00,,,0.00,791.000000,,2013-09-03 23:04:00,
2013-09-03 17:12:00,94.0,53.0,-100.00,SE,135,7.0,15.0,25,0.00,,,0.00,791.000000,,2013-09-03 23:12:00,
2013-09-03 17:42:00,87.0,56.0,-100.00,NNE,16,10.0,18.0,35,0.00,,,0.00,341.000000,,2013-09-03 23:42:00,
2013-09-03 17:54:00,87.0,56.0,-100.00,NNE,16,10.0,18.0,35,0.00,,,0.00,341.000000,,2013-09-03 23:54:00,
2013-09-03 18:02:00,87.0,56.0,-100.00,NNE,16,10.0,18.0,35,0.00,,,0.00,341.000000,,2013-09-04 00:02:00,
2013-09-03 18:12:00,87.0,56.0,-100.00,NNE,16,10.0,18.0,35,0.00,,,0.00,341.000000,,2013-09-04 00:12:00,
2013-09-03 18:42:00,85.0,57.0,-100.00,NNE,12,10.0,18.0,38,0.00,,,0.00,150.000000,,2013-09-04 00:42:00,
2013-09-03 18:52:00,85.0,57.0,-100.00,NNE,12,10.0,18.0,38,0.00,,,0.00,150.000000,,2013-09-04 00:52:00,
2013-09-03 19:01:00,85.0,57.0,-100.00,NNE,12,10.0,18.0,38,0.00,,,0.00,150.000000,,2013-09-04 01:01:00,
2013-09-03 19:11:00,85.0,57.0,-100.00,NNE,12,10.0,18.0,38,0.00,,,0.00,150.000000,,2013-09-04 01:11:00,
2013-09-03 19:42:00,82.0,57.0,-100.00,North,7,14.0,26.0,43,0.00,,,0.00,65.000000,,2013-09-04 01:42:00,
2013-09-03 19:53:00,82.0,57.0,-100.00,North,7,14.0,26.0,43,0.00,,,0.00,65.000000,,2013-09-04 01:53:00,
2013-09-03 20:02:00,82.0,57.0,-100.00,North,7,14.0,26.0,43,0.00,,,0.00,65.000000,,2013-09-04 02:02:00,
2013-09-03 20:11:00,82.0,57.0,-100.00,North,7,14.0,26.0,43,0.00,,,0.00,65.000000,,2013-09-04 02:11:00,
2013-09-03 20:43:00,78.0,57.0,-100.00,North,4,11.0,20.0,49,0.00,,,0.00,7.000000,,2013-09-04 02:43:00,
2013-09-03 20:52:00,78.0,57.0,-100.00,North,4,11.0,20.0,49,0.00,,,0.00,7.000000,,2013-09-04 02:52:00,
2013-09-03 21:03:00,78.0,57.0,-100.00,North,4,11.0,20.0,49,0.00,,,0.00,7.000000,,2013-09-04 03:03:00,
2013-09-03 21:11:00,78.0,57.0,-100.00,North,4,11.0,20.0,49,0.00,,,0.00,7.000000,,2013-09-04 03:11:00,
2013-09-03 21:13:00,76.0,57.0,-100.00,North,354,10.0,19.0,52,0.00,,,0.00,0.000000,,2013-09-04 03:13:00,
2013-09-03 21:44:00,76.0,57.0,-100.00,North,354,10.0,19.0,52,0.00,,,0.00,0.000000,,2013-09-04 03:44:00,
2013-09-03 21:54:00,76.0,57.0,-100.00,North,354,10.0,19.0,52,0.00,,,0.00,0.000000,,2013-09-04 03:54:00,
2013-09-03 22:04:00,76.0,57.0,-100.00,North,354,10.0,19.0,52,0.00,,,0.00,0.000000,,2013-09-04 04:04:00,
2013-09-03 22:44:00,73.0,57.0,-100.00,NNW,345,7.0,16.0,57,0.00,,,0.00,0.000000,,2013-09-04 04:44:00,
2013-09-03 22:54:00,73.0,57.0,-100.00,NNW,345,7.0,16.0,57,0.00,,,0.00,0.000000,,2013-09-04 04:54:00,
2013-09-03 23:03:00,73.0,57.0,-100.00,NNW,345,7.0,16.0,57,0.00,,,0.00,0.000000,,2013-09-04 05:03:00,
2013-09-03 23:12:00,73.0,57.0,-100.00,NNW,345,7.0,16.0,57,0.00,,,0.00,0.000000,,2013-09-04 05:12:00,
2013-09-03 23:43:00,71.0,57.0,-100.00,NNW,327,8.0,11.0,62,0.00,,,0.00,0.000000,,2013-09-04 05:43:00,
2013-09-03 23:53:00,71.0,57.0,-100.00,NNW,327,8.0,11.0,62,0.00,,,0.00,0.000000,,2013-09-04 05:53:00,